sensor_id;sensor_type;location;lat;lon;timestamp;P1;durP1;ratioP1;P2;durP2;ratioP2
40072;SDS011;25774;52.256;9.356;2024-02-28T00:00:00;26.50;;;14.47;;
40072;SDS011;25774;52.256;9.356;2024-02-28T00:02:25;27.10;;;14.17;;
40072;SDS011;25774;52.256;9.356;2024-02-28T00:04:50;31.97;;;15.60;;
40072;SDS011;25774;52.256;9.356;2024-02-28T00:07:15;25.63;;;14.53;;
40072;SDS011;25774;52.256;9.356;2024-02-28T00:09:42;26.05;;;14.90;;
40072;SDS011;25774;52.256;9.356;2024-02-28T00:12:07;27.87;;;15.10;;
40072;SDS011;25774;52.256;9.356;2024-02-28T00:14:33;22.90;;;13.33;;
40072;SDS011;25774;52.256;9.356;2024-02-28T00:16:59;28.40;;;14.80;;
40072;SDS011;25774;52.256;9.356;2024-02-28T00:19:24;25.48;;;14.13;;
40072;SDS011;25774;52.256;9.356;2024-02-28T00:21:50;29.67;;;13.43;;
40072;SDS011;25774;52.256;9.356;2024-02-28T00:24:15;29.90;;;14.53;;
40072;SDS011;25774;52.256;9.356;2024-02-28T00:26:41;29.00;;;14.70;;
40072;SDS011;25774;52.256;9.356;2024-02-28T00:29:07;27.90;;;13.98;;
40072;SDS011;25774;52.256;9.356;2024-02-28T00:31:32;33.33;;;15.00;;
40072;SDS011;25774;52.256;9.356;2024-02-28T00:33:57;31.30;;;14.53;;
40072;SDS011;25774;52.256;9.356;2024-02-28T00:36:23;24.87;;;13.63;;
40072;SDS011;25774;52.256;9.356;2024-02-28T00:38:49;26.58;;;14.23;;
40072;SDS011;25774;52.256;9.356;2024-02-28T00:41:14;24.63;;;13.50;;
40072;SDS011;25774;52.256;9.356;2024-02-28T00:43:39;28.97;;;13.97;;
40072;SDS011;25774;52.256;9.356;2024-02-28T00:46:05;25.67;;;14.43;;
40072;SDS011;25774;52.256;9.356;2024-02-28T00:48:36;26.17;;;14.50;;
40072;SDS011;25774;52.256;9.356;2024-02-28T00:51:01;30.07;;;14.87;;
40072;SDS011;25774;52.256;9.356;2024-02-28T00:53:27;29.93;;;14.17;;
40072;SDS011;25774;52.256;9.356;2024-02-28T00:55:53;27.23;;;14.30;;
40072;SDS011;25774;52.256;9.356;2024-02-28T00:58:18;30.60;;;14.80;;
40072;SDS011;25774;52.256;9.356;2024-02-28T01:00:43;27.87;;;15.63;;
40072;SDS011;25774;52.256;9.356;2024-02-28T01:03:08;28.93;;;14.20;;
40072;SDS011;25774;52.256;9.356;2024-02-28T01:05:36;25.10;;;13.40;;
40072;SDS011;25774;52.256;9.356;2024-02-28T01:08:01;26.37;;;13.80;;
40072;SDS011;25774;52.256;9.356;2024-02-28T01:10:27;25.20;;;13.37;;
40072;SDS011;25774;52.256;9.356;2024-02-28T01:12:52;24.88;;;13.73;;
40072;SDS011;25774;52.256;9.356;2024-02-28T01:15:18;30.27;;;13.70;;
40072;SDS011;25774;52.256;9.356;2024-02-28T01:17:43;31.67;;;14.30;;
40072;SDS011;25774;52.256;9.356;2024-02-28T01:20:08;27.10;;;14.37;;
40072;SDS011;25774;52.256;9.356;2024-02-28T01:22:35;24.03;;;12.90;;
40072;SDS011;25774;52.256;9.356;2024-02-28T01:25:00;26.83;;;14.35;;
40072;SDS011;25774;52.256;9.356;2024-02-28T01:27:26;26.80;;;13.37;;
40072;SDS011;25774;52.256;9.356;2024-02-28T01:29:51;27.67;;;14.97;;
40072;SDS011;25774;52.256;9.356;2024-02-28T01:32:18;25.73;;;13.90;;
40072;SDS011;25774;52.256;9.356;2024-02-28T01:34:43;26.77;;;12.23;;
40072;SDS011;25774;52.256;9.356;2024-02-28T01:37:10;25.43;;;13.70;;
40072;SDS011;25774;52.256;9.356;2024-02-28T01:39:35;25.05;;;13.15;;
40072;SDS011;25774;52.256;9.356;2024-02-28T01:42:00;24.57;;;13.23;;
40072;SDS011;25774;52.256;9.356;2024-02-28T01:44:25;25.13;;;12.57;;
40072;SDS011;25774;52.256;9.356;2024-02-28T01:46:51;29.63;;;13.80;;
40072;SDS011;25774;52.256;9.356;2024-02-28T01:49:20;27.42;;;14.13;;
40072;SDS011;25774;52.256;9.356;2024-02-28T01:51:46;28.52;;;13.57;;
40072;SDS011;25774;52.256;9.356;2024-02-28T01:54:11;24.60;;;13.60;;
40072;SDS011;25774;52.256;9.356;2024-02-28T01:56:37;30.07;;;14.37;;
40072;SDS011;25774;52.256;9.356;2024-02-28T01:59:03;27.55;;;14.38;;
40072;SDS011;25774;52.256;9.356;2024-02-28T02:01:28;31.15;;;15.02;;
40072;SDS011;25774;52.256;9.356;2024-02-28T02:03:54;27.03;;;14.10;;
40072;SDS011;25774;52.256;9.356;2024-02-28T02:06:19;31.83;;;14.57;;
40072;SDS011;25774;52.256;9.356;2024-02-28T02:08:46;29.23;;;15.00;;
40072;SDS011;25774;52.256;9.356;2024-02-28T02:11:11;31.40;;;14.75;;
40072;SDS011;25774;52.256;9.356;2024-02-28T02:13:47;29.95;;;13.85;;
40072;SDS011;25774;52.256;9.356;2024-02-28T02:16:12;25.33;;;13.13;;
40072;SDS011;25774;52.256;9.356;2024-02-28T02:18:37;27.43;;;14.40;;
40072;SDS011;25774;52.256;9.356;2024-02-28T02:21:04;24.83;;;12.77;;
40072;SDS011;25774;52.256;9.356;2024-02-28T02:23:31;27.05;;;12.65;;
40072;SDS011;25774;52.256;9.356;2024-02-28T02:25:57;28.48;;;13.63;;
40072;SDS011;25774;52.256;9.356;2024-02-28T02:28:22;25.00;;;13.00;;
40072;SDS011;25774;52.256;9.356;2024-02-28T02:30:49;28.10;;;14.33;;
40072;SDS011;25774;52.256;9.356;2024-02-28T02:33:14;24.85;;;12.95;;
40072;SDS011;25774;52.256;9.356;2024-02-28T02:35:40;27.57;;;13.27;;
40072;SDS011;25774;52.256;9.356;2024-02-28T02:38:06;28.07;;;13.70;;
40072;SDS011;25774;52.256;9.356;2024-02-28T02:40:31;25.73;;;13.05;;
40072;SDS011;25774;52.256;9.356;2024-02-28T02:42:57;25.23;;;12.57;;
40072;SDS011;25774;52.256;9.356;2024-02-28T02:45:22;31.67;;;14.23;;
40072;SDS011;25774;52.256;9.356;2024-02-28T02:47:47;28.43;;;14.63;;
40072;SDS011;25774;52.256;9.356;2024-02-28T02:50:14;28.03;;;14.63;;
40072;SDS011;25774;52.256;9.356;2024-02-28T02:52:42;27.33;;;13.43;;
40072;SDS011;25774;52.256;9.356;2024-02-28T02:55:07;27.55;;;13.35;;
40072;SDS011;25774;52.256;9.356;2024-02-28T02:57:32;25.10;;;13.17;;
40072;SDS011;25774;52.256;9.356;2024-02-28T02:59:58;28.73;;;15.07;;
40072;SDS011;25774;52.256;9.356;2024-02-28T03:02:23;28.63;;;14.60;;
40072;SDS011;25774;52.256;9.356;2024-02-28T03:04:48;28.27;;;13.87;;
40072;SDS011;25774;52.256;9.356;2024-02-28T03:07:13;29.97;;;15.37;;
40072;SDS011;25774;52.256;9.356;2024-02-28T03:09:38;27.27;;;14.23;;
40072;SDS011;25774;52.256;9.356;2024-02-28T03:12:04;27.27;;;13.57;;
40072;SDS011;25774;52.256;9.356;2024-02-28T03:14:30;28.17;;;13.53;;
40072;SDS011;25774;52.256;9.356;2024-02-28T03:16:55;30.52;;;15.05;;
40072;SDS011;25774;52.256;9.356;2024-02-28T03:19:22;33.08;;;14.82;;
40072;SDS011;25774;52.256;9.356;2024-02-28T03:21:47;28.80;;;14.48;;
40072;SDS011;25774;52.256;9.356;2024-02-28T03:24:13;32.13;;;16.30;;
40072;SDS011;25774;52.256;9.356;2024-02-28T03:26:38;32.27;;;16.80;;
40072;SDS011;25774;52.256;9.356;2024-02-28T03:29:04;29.53;;;14.27;;
40072;SDS011;25774;52.256;9.356;2024-02-28T03:31:30;30.58;;;14.82;;
40072;SDS011;25774;52.256;9.356;2024-02-28T03:33:56;29.20;;;13.90;;
40072;SDS011;25774;52.256;9.356;2024-02-28T03:36:21;26.80;;;14.57;;
40072;SDS011;25774;52.256;9.356;2024-02-28T03:38:46;28.70;;;14.27;;
40072;SDS011;25774;52.256;9.356;2024-02-28T03:41:12;29.60;;;14.70;;
40072;SDS011;25774;52.256;9.356;2024-02-28T03:43:38;26.20;;;13.98;;
40072;SDS011;25774;52.256;9.356;2024-02-28T03:46:04;25.43;;;13.80;;
40072;SDS011;25774;52.256;9.356;2024-02-28T03:48:29;29.70;;;14.25;;
40072;SDS011;25774;52.256;9.356;2024-02-28T03:50:54;28.90;;;14.23;;
40072;SDS011;25774;52.256;9.356;2024-02-28T03:53:20;30.30;;;15.47;;
40072;SDS011;25774;52.256;9.356;2024-02-28T03:55:45;30.57;;;15.87;;
40072;SDS011;25774;52.256;9.356;2024-02-28T03:58:10;25.70;;;13.27;;
40072;SDS011;25774;52.256;9.356;2024-02-28T04:00:36;25.90;;;13.33;;
40072;SDS011;25774;52.256;9.356;2024-02-28T04:03:01;31.07;;;14.57;;
40072;SDS011;25774;52.256;9.356;2024-02-28T04:05:28;24.97;;;13.33;;
40072;SDS011;25774;52.256;9.356;2024-02-28T04:07:54;26.77;;;14.15;;
40072;SDS011;25774;52.256;9.356;2024-02-28T04:10:20;30.23;;;15.33;;
40072;SDS011;25774;52.256;9.356;2024-02-28T04:15:11;33.80;;;15.48;;
40072;SDS011;25774;52.256;9.356;2024-02-28T04:20:04;31.33;;;15.23;;
40072;SDS011;25774;52.256;9.356;2024-02-28T04:22:34;32.45;;;16.35;;
40072;SDS011;25774;52.256;9.356;2024-02-28T04:24:59;29.20;;;15.32;;
40072;SDS011;25774;52.256;9.356;2024-02-28T04:27:24;32.97;;;16.10;;
40072;SDS011;25774;52.256;9.356;2024-02-28T04:29:49;32.43;;;15.93;;
40072;SDS011;25774;52.256;9.356;2024-02-28T04:32:14;33.50;;;16.10;;
40072;SDS011;25774;52.256;9.356;2024-02-28T04:34:40;36.00;;;16.77;;
40072;SDS011;25774;52.256;9.356;2024-02-28T04:37:05;39.10;;;17.90;;
40072;SDS011;25774;52.256;9.356;2024-02-28T04:39:30;31.77;;;16.43;;
40072;SDS011;25774;52.256;9.356;2024-02-28T04:41:56;32.22;;;15.75;;
40072;SDS011;25774;52.256;9.356;2024-02-28T04:44:21;33.20;;;16.57;;
40072;SDS011;25774;52.256;9.356;2024-02-28T04:46:46;35.97;;;17.87;;
40072;SDS011;25774;52.256;9.356;2024-02-28T04:49:11;33.30;;;16.90;;
40072;SDS011;25774;52.256;9.356;2024-02-28T04:51:38;34.03;;;17.20;;
40072;SDS011;25774;52.256;9.356;2024-02-28T04:54:03;31.85;;;16.33;;
40072;SDS011;25774;52.256;9.356;2024-02-28T04:56:28;33.00;;;16.57;;
40072;SDS011;25774;52.256;9.356;2024-02-28T04:58:53;33.03;;;16.53;;
40072;SDS011;25774;52.256;9.356;2024-02-28T05:01:20;30.90;;;15.70;;
40072;SDS011;25774;52.256;9.356;2024-02-28T05:03:45;33.92;;;17.17;;
40072;SDS011;25774;52.256;9.356;2024-02-28T05:06:10;32.17;;;16.83;;
40072;SDS011;25774;52.256;9.356;2024-02-28T05:08:38;34.27;;;17.77;;
40072;SDS011;25774;52.256;9.356;2024-02-28T05:11:03;36.38;;;17.30;;
40072;SDS011;25774;52.256;9.356;2024-02-28T05:13:28;31.80;;;16.97;;
40072;SDS011;25774;52.256;9.356;2024-02-28T05:15:54;35.10;;;17.93;;
40072;SDS011;25774;52.256;9.356;2024-02-28T05:18:20;36.60;;;16.27;;
40072;SDS011;25774;52.256;9.356;2024-02-28T05:20:45;47.22;;;17.58;;
40072;SDS011;25774;52.256;9.356;2024-02-28T05:23:11;29.30;;;15.77;;
40072;SDS011;25774;52.256;9.356;2024-02-28T05:25:36;35.63;;;17.50;;
40072;SDS011;25774;52.256;9.356;2024-02-28T05:28:01;33.27;;;17.43;;
40072;SDS011;25774;52.256;9.356;2024-02-28T05:30:27;35.60;;;18.08;;
40072;SDS011;25774;52.256;9.356;2024-02-28T05:32:52;32.33;;;16.00;;
40072;SDS011;25774;52.256;9.356;2024-02-28T05:35:17;37.13;;;17.00;;
40072;SDS011;25774;52.256;9.356;2024-02-28T05:37:44;40.30;;;18.10;;
40072;SDS011;25774;52.256;9.356;2024-02-28T05:40:09;37.35;;;17.98;;
40072;SDS011;25774;52.256;9.356;2024-02-28T05:42:34;32.57;;;16.50;;
40072;SDS011;25774;52.256;9.356;2024-02-28T05:44:59;36.70;;;17.87;;
40072;SDS011;25774;52.256;9.356;2024-02-28T05:47:26;31.53;;;16.67;;
40072;SDS011;25774;52.256;9.356;2024-02-28T05:49:51;36.15;;;19.10;;
40072;SDS011;25774;52.256;9.356;2024-02-28T05:52:16;38.13;;;17.83;;
40072;SDS011;25774;52.256;9.356;2024-02-28T05:54:41;36.50;;;18.37;;
40072;SDS011;25774;52.256;9.356;2024-02-28T05:57:07;34.28;;;17.92;;
40072;SDS011;25774;52.256;9.356;2024-02-28T05:59:33;34.60;;;18.53;;
40072;SDS011;25774;52.256;9.356;2024-02-28T06:01:58;39.90;;;18.40;;
40072;SDS011;25774;52.256;9.356;2024-02-28T06:04:23;37.43;;;19.10;;
40072;SDS011;25774;52.256;9.356;2024-02-28T06:06:48;40.53;;;19.43;;
40072;SDS011;25774;52.256;9.356;2024-02-28T06:09:15;37.75;;;19.42;;
40072;SDS011;25774;52.256;9.356;2024-02-28T06:11:40;38.60;;;18.80;;
40072;SDS011;25774;52.256;9.356;2024-02-28T06:14:06;36.60;;;18.47;;
40072;SDS011;25774;52.256;9.356;2024-02-28T06:16:32;35.87;;;18.67;;
40072;SDS011;25774;52.256;9.356;2024-02-28T06:18:57;41.58;;;18.63;;
40072;SDS011;25774;52.256;9.356;2024-02-28T06:21:23;35.53;;;18.80;;
40072;SDS011;25774;52.256;9.356;2024-02-28T06:23:49;42.35;;;20.90;;
40072;SDS011;25774;52.256;9.356;2024-02-28T06:26:14;43.47;;;21.07;;
40072;SDS011;25774;52.256;9.356;2024-02-28T06:28:42;47.85;;;20.90;;
40072;SDS011;25774;52.256;9.356;2024-02-28T06:31:17;44.85;;;21.23;;
40072;SDS011;25774;52.256;9.356;2024-02-28T06:33:45;45.78;;;22.10;;
40072;SDS011;25774;52.256;9.356;2024-02-28T06:36:10;53.90;;;23.13;;
40072;SDS011;25774;52.256;9.356;2024-02-28T06:38:36;56.37;;;23.97;;
40072;SDS011;25774;52.256;9.356;2024-02-28T06:41:04;56.97;;;24.37;;
40072;SDS011;25774;52.256;9.356;2024-02-28T06:43:32;66.43;;;25.02;;
40072;SDS011;25774;52.256;9.356;2024-02-28T06:45:58;62.22;;;24.38;;
40072;SDS011;25774;52.256;9.356;2024-02-28T06:48:24;63.83;;;24.77;;
40072;SDS011;25774;52.256;9.356;2024-02-28T06:50:50;63.25;;;26.02;;
40072;SDS011;25774;52.256;9.356;2024-02-28T06:53:15;68.22;;;26.30;;
40072;SDS011;25774;52.256;9.356;2024-02-28T06:55:40;76.83;;;27.97;;
40072;SDS011;25774;52.256;9.356;2024-02-28T06:58:06;66.67;;;27.17;;
40072;SDS011;25774;52.256;9.356;2024-02-28T07:00:31;63.47;;;25.67;;
40072;SDS011;25774;52.256;9.356;2024-02-28T07:02:57;65.77;;;28.07;;
40072;SDS011;25774;52.256;9.356;2024-02-28T07:05:22;67.07;;;26.60;;
40072;SDS011;25774;52.256;9.356;2024-02-28T07:07:48;67.00;;;28.43;;
40072;SDS011;25774;52.256;9.356;2024-02-28T07:10:13;60.97;;;25.20;;
40072;SDS011;25774;52.256;9.356;2024-02-28T07:12:38;63.20;;;24.93;;
40072;SDS011;25774;52.256;9.356;2024-02-28T07:15:06;61.20;;;25.20;;
40072;SDS011;25774;52.256;9.356;2024-02-28T07:17:31;60.75;;;26.40;;
40072;SDS011;25774;52.256;9.356;2024-02-28T07:19:57;60.80;;;26.40;;
40072;SDS011;25774;52.256;9.356;2024-02-28T07:22:23;72.25;;;24.85;;
40072;SDS011;25774;52.256;9.356;2024-02-28T07:24:48;64.63;;;25.23;;
40072;SDS011;25774;52.256;9.356;2024-02-28T07:27:13;56.67;;;23.50;;
40072;SDS011;25774;52.256;9.356;2024-02-28T07:29:39;65.40;;;24.03;;
40072;SDS011;25774;52.256;9.356;2024-02-28T07:32:06;77.23;;;23.50;;
40072;SDS011;25774;52.256;9.356;2024-02-28T07:34:31;58.67;;;24.30;;
40072;SDS011;25774;52.256;9.356;2024-02-28T07:36:57;75.23;;;25.17;;
40072;SDS011;25774;52.256;9.356;2024-02-28T07:39:22;75.37;;;25.53;;
40072;SDS011;25774;52.256;9.356;2024-02-28T07:41:49;60.97;;;25.08;;
40072;SDS011;25774;52.256;9.356;2024-02-28T07:46:41;64.80;;;24.10;;
40072;SDS011;25774;52.256;9.356;2024-02-28T07:49:06;65.20;;;26.87;;
40072;SDS011;25774;52.256;9.356;2024-02-28T07:51:31;61.60;;;24.70;;
40072;SDS011;25774;52.256;9.356;2024-02-28T07:53:58;62.67;;;26.00;;
40072;SDS011;25774;52.256;9.356;2024-02-28T07:56:24;59.28;;;25.63;;
40072;SDS011;25774;52.256;9.356;2024-02-28T07:58:49;59.33;;;25.53;;
40072;SDS011;25774;52.256;9.356;2024-02-28T08:01:14;57.80;;;26.13;;
40072;SDS011;25774;52.256;9.356;2024-02-28T08:06:06;58.05;;;24.85;;
40072;SDS011;25774;52.256;9.356;2024-02-28T08:08:33;58.17;;;25.75;;
40072;SDS011;25774;52.256;9.356;2024-02-28T08:10:58;53.63;;;23.33;;
40072;SDS011;25774;52.256;9.356;2024-02-28T08:13:25;54.67;;;25.57;;
40072;SDS011;25774;52.256;9.356;2024-02-28T08:15:53;58.03;;;24.45;;
40072;SDS011;25774;52.256;9.356;2024-02-28T08:18:18;51.07;;;23.47;;
40072;SDS011;25774;52.256;9.356;2024-02-28T08:20:44;53.90;;;24.30;;
40072;SDS011;25774;52.256;9.356;2024-02-28T08:23:09;51.47;;;24.13;;
40072;SDS011;25774;52.256;9.356;2024-02-28T08:25:34;57.73;;;23.00;;
40072;SDS011;25774;52.256;9.356;2024-02-28T08:27:59;51.53;;;24.00;;
40072;SDS011;25774;52.256;9.356;2024-02-28T08:30:24;50.60;;;23.43;;
40072;SDS011;25774;52.256;9.356;2024-02-28T08:32:50;55.50;;;24.03;;
40072;SDS011;25774;52.256;9.356;2024-02-28T08:35:17;60.33;;;25.87;;
40072;SDS011;25774;52.256;9.356;2024-02-28T08:37:43;62.55;;;24.90;;
40072;SDS011;25774;52.256;9.356;2024-02-28T08:40:09;61.60;;;25.48;;
40072;SDS011;25774;52.256;9.356;2024-02-28T08:42:35;61.15;;;26.73;;
40072;SDS011;25774;52.256;9.356;2024-02-28T08:45:00;62.17;;;25.93;;
40072;SDS011;25774;52.256;9.356;2024-02-28T08:47:26;56.10;;;25.40;;
40072;SDS011;25774;52.256;9.356;2024-02-28T08:49:52;59.45;;;25.77;;
40072;SDS011;25774;52.256;9.356;2024-02-28T08:52:18;60.03;;;26.40;;
40072;SDS011;25774;52.256;9.356;2024-02-28T08:54:44;61.27;;;25.30;;
40072;SDS011;25774;52.256;9.356;2024-02-28T08:57:09;63.23;;;27.80;;
40072;SDS011;25774;52.256;9.356;2024-02-28T08:59:34;62.50;;;25.83;;
40072;SDS011;25774;52.256;9.356;2024-02-28T09:01:59;59.23;;;25.93;;
40072;SDS011;25774;52.256;9.356;2024-02-28T09:04:25;57.47;;;24.70;;
40072;SDS011;25774;52.256;9.356;2024-02-28T09:06:50;52.67;;;26.00;;
40072;SDS011;25774;52.256;9.356;2024-02-28T09:09:15;56.97;;;26.37;;
40072;SDS011;25774;52.256;9.356;2024-02-28T09:14:06;55.22;;;24.45;;
40072;SDS011;25774;52.256;9.356;2024-02-28T09:16:32;59.07;;;25.33;;
40072;SDS011;25774;52.256;9.356;2024-02-28T09:18:57;61.73;;;24.23;;
40072;SDS011;25774;52.256;9.356;2024-02-28T09:21:22;58.87;;;25.43;;
40072;SDS011;25774;52.256;9.356;2024-02-28T09:23:47;58.77;;;25.87;;
40072;SDS011;25774;52.256;9.356;2024-02-28T09:26:14;55.60;;;24.37;;
40072;SDS011;25774;52.256;9.356;2024-02-28T09:28:39;54.60;;;25.33;;
40072;SDS011;25774;52.256;9.356;2024-02-28T09:31:06;56.97;;;25.40;;
40072;SDS011;25774;52.256;9.356;2024-02-28T09:33:31;56.20;;;24.95;;
40072;SDS011;25774;52.256;9.356;2024-02-28T09:35:57;60.90;;;27.03;;
40072;SDS011;25774;52.256;9.356;2024-02-28T09:38:22;59.07;;;26.07;;
40072;SDS011;25774;52.256;9.356;2024-02-28T09:40:49;57.75;;;26.00;;
40072;SDS011;25774;52.256;9.356;2024-02-28T09:46:08;55.35;;;23.92;;
40072;SDS011;25774;52.256;9.356;2024-02-28T09:48:40;55.10;;;24.58;;
40072;SDS011;25774;52.256;9.356;2024-02-28T09:51:06;61.33;;;25.52;;
40072;SDS011;25774;52.256;9.356;2024-02-28T09:53:33;58.00;;;23.48;;
40072;SDS011;25774;52.256;9.356;2024-02-28T09:55:59;61.38;;;25.10;;
40072;SDS011;25774;52.256;9.356;2024-02-28T09:58:24;57.43;;;24.27;;
40072;SDS011;25774;52.256;9.356;2024-02-28T10:00:50;56.75;;;25.02;;
40072;SDS011;25774;52.256;9.356;2024-02-28T10:03:18;61.90;;;25.40;;
40072;SDS011;25774;52.256;9.356;2024-02-28T10:05:44;56.33;;;24.52;;
40072;SDS011;25774;52.256;9.356;2024-02-28T10:08:10;59.55;;;25.38;;
40072;SDS011;25774;52.256;9.356;2024-02-28T10:10:44;61.08;;;26.38;;
40072;SDS011;25774;52.256;9.356;2024-02-28T10:13:09;58.10;;;25.85;;
40072;SDS011;25774;52.256;9.356;2024-02-28T10:15:34;58.50;;;26.03;;
40072;SDS011;25774;52.256;9.356;2024-02-28T10:17:59;55.60;;;23.87;;
40072;SDS011;25774;52.256;9.356;2024-02-28T10:20:25;57.57;;;24.60;;
40072;SDS011;25774;52.256;9.356;2024-02-28T10:22:52;57.10;;;26.13;;
40072;SDS011;25774;52.256;9.356;2024-02-28T10:25:17;55.50;;;24.00;;
40072;SDS011;25774;52.256;9.356;2024-02-28T10:27:43;57.85;;;24.15;;
40072;SDS011;25774;52.256;9.356;2024-02-28T10:30:10;57.33;;;24.40;;
40072;SDS011;25774;52.256;9.356;2024-02-28T10:32:36;57.47;;;25.50;;
40072;SDS011;25774;52.256;9.356;2024-02-28T10:35:02;59.78;;;24.95;;
40072;SDS011;25774;52.256;9.356;2024-02-28T10:37:30;58.23;;;25.20;;
40072;SDS011;25774;52.256;9.356;2024-02-28T10:39:57;58.20;;;25.45;;
40072;SDS011;25774;52.256;9.356;2024-02-28T10:42:22;51.90;;;23.80;;
40072;SDS011;25774;52.256;9.356;2024-02-28T10:44:49;53.10;;;23.67;;
40072;SDS011;25774;52.256;9.356;2024-02-28T10:47:17;52.97;;;23.10;;
40072;SDS011;25774;52.256;9.356;2024-02-28T10:49:42;53.13;;;23.50;;
40072;SDS011;25774;52.256;9.356;2024-02-28T10:54:35;55.03;;;22.38;;
40072;SDS011;25774;52.256;9.356;2024-02-28T10:57:02;55.85;;;26.13;;
40072;SDS011;25774;52.256;9.356;2024-02-28T10:59:29;59.42;;;24.90;;
40072;SDS011;25774;52.256;9.356;2024-02-28T11:01:56;64.38;;;25.52;;
40072;SDS011;25774;52.256;9.356;2024-02-28T11:04:22;55.43;;;24.63;;
40072;SDS011;25774;52.256;9.356;2024-02-28T11:06:48;62.50;;;25.43;;
40072;SDS011;25774;52.256;9.356;2024-02-28T11:09:18;55.72;;;23.67;;
40072;SDS011;25774;52.256;9.356;2024-02-28T11:11:43;53.97;;;25.40;;
40072;SDS011;25774;52.256;9.356;2024-02-28T11:14:08;52.17;;;23.13;;
40072;SDS011;25774;52.256;9.356;2024-02-28T11:16:39;57.72;;;25.27;;
40072;SDS011;25774;52.256;9.356;2024-02-28T11:19:07;54.40;;;26.45;;
40072;SDS011;25774;52.256;9.356;2024-02-28T11:21:34;57.45;;;25.58;;
40072;SDS011;25774;52.256;9.356;2024-02-28T11:24:00;58.53;;;26.05;;
40072;SDS011;25774;52.256;9.356;2024-02-28T11:26:25;65.30;;;26.83;;
40072;SDS011;25774;52.256;9.356;2024-02-28T11:28:52;60.50;;;25.92;;
40072;SDS011;25774;52.256;9.356;2024-02-28T11:31:17;62.27;;;25.80;;
40072;SDS011;25774;52.256;9.356;2024-02-28T11:33:43;58.97;;;25.55;;
40072;SDS011;25774;52.256;9.356;2024-02-28T11:36:10;58.00;;;23.83;;
40072;SDS011;25774;52.256;9.356;2024-02-28T11:38:36;57.20;;;25.13;;
40072;SDS011;25774;52.256;9.356;2024-02-28T11:41:04;60.72;;;26.77;;
40072;SDS011;25774;52.256;9.356;2024-02-28T11:43:32;57.40;;;26.30;;
40072;SDS011;25774;52.256;9.356;2024-02-28T11:45:58;57.35;;;23.40;;
40072;SDS011;25774;52.256;9.356;2024-02-28T11:48:24;49.28;;;23.67;;
40072;SDS011;25774;52.256;9.356;2024-02-28T11:50:50;57.00;;;25.80;;
40072;SDS011;25774;52.256;9.356;2024-02-28T11:53:16;55.53;;;25.58;;
40072;SDS011;25774;52.256;9.356;2024-02-28T11:55:41;52.03;;;22.52;;
40072;SDS011;25774;52.256;9.356;2024-02-28T11:58:08;48.65;;;23.77;;
40072;SDS011;25774;52.256;9.356;2024-02-28T12:00:34;52.95;;;23.52;;
40072;SDS011;25774;52.256;9.356;2024-02-28T12:03:06;52.33;;;23.70;;
40072;SDS011;25774;52.256;9.356;2024-02-28T12:05:31;54.03;;;23.65;;
40072;SDS011;25774;52.256;9.356;2024-02-28T12:07:56;48.67;;;23.50;;
40072;SDS011;25774;52.256;9.356;2024-02-28T12:10:23;52.28;;;24.38;;
40072;SDS011;25774;52.256;9.356;2024-02-28T12:12:49;46.77;;;23.40;;
40072;SDS011;25774;52.256;9.356;2024-02-28T12:17:42;49.38;;;22.58;;
40072;SDS011;25774;52.256;9.356;2024-02-28T12:20:07;50.55;;;24.00;;
40072;SDS011;25774;52.256;9.356;2024-02-28T12:22:33;53.80;;;23.80;;
40072;SDS011;25774;52.256;9.356;2024-02-28T12:24:58;45.63;;;22.87;;
40072;SDS011;25774;52.256;9.356;2024-02-28T12:27:25;46.97;;;24.13;;
40072;SDS011;25774;52.256;9.356;2024-02-28T12:29:51;44.90;;;22.87;;
40072;SDS011;25774;52.256;9.356;2024-02-28T12:32:16;45.77;;;24.37;;
40072;SDS011;25774;52.256;9.356;2024-02-28T12:34:42;44.80;;;22.73;;
40072;SDS011;25774;52.256;9.356;2024-02-28T12:37:08;44.53;;;21.70;;
40072;SDS011;25774;52.256;9.356;2024-02-28T12:39:33;48.67;;;22.97;;
40072;SDS011;25774;52.256;9.356;2024-02-28T12:42:00;44.83;;;22.67;;
40072;SDS011;25774;52.256;9.356;2024-02-28T12:44:25;43.08;;;22.38;;
40072;SDS011;25774;52.256;9.356;2024-02-28T12:46:51;45.13;;;23.03;;
40072;SDS011;25774;52.256;9.356;2024-02-28T12:49:16;43.07;;;22.37;;
40072;SDS011;25774;52.256;9.356;2024-02-28T12:54:07;45.37;;;25.27;;
40072;SDS011;25774;52.256;9.356;2024-02-28T12:56:34;43.70;;;22.75;;
40072;SDS011;25774;52.256;9.356;2024-02-28T12:59:00;47.88;;;22.98;;
40072;SDS011;25774;52.256;9.356;2024-02-28T13:01:25;44.47;;;22.60;;
40072;SDS011;25774;52.256;9.356;2024-02-28T13:03:50;44.57;;;23.13;;
40072;SDS011;25774;52.256;9.356;2024-02-28T13:06:16;39.20;;;22.27;;
40072;SDS011;25774;52.256;9.356;2024-02-28T13:08:42;44.60;;;23.27;;
40072;SDS011;25774;52.256;9.356;2024-02-28T13:11:07;42.23;;;23.00;;
40072;SDS011;25774;52.256;9.356;2024-02-28T13:13:33;41.57;;;22.27;;
40072;SDS011;25774;52.256;9.356;2024-02-28T13:15:58;40.90;;;21.67;;
40072;SDS011;25774;52.256;9.356;2024-02-28T13:18:23;36.13;;;20.83;;
40072;SDS011;25774;52.256;9.356;2024-02-28T13:20:50;40.15;;;20.67;;
40072;SDS011;25774;52.256;9.356;2024-02-28T13:23:16;39.55;;;21.55;;
40072;SDS011;25774;52.256;9.356;2024-02-28T13:25:42;39.70;;;21.27;;
40072;SDS011;25774;52.256;9.356;2024-02-28T13:28:07;41.20;;;21.55;;
40072;SDS011;25774;52.256;9.356;2024-02-28T13:30:33;43.60;;;23.30;;
40072;SDS011;25774;52.256;9.356;2024-02-28T13:33:01;45.53;;;23.38;;
40072;SDS011;25774;52.256;9.356;2024-02-28T13:35:26;42.47;;;22.00;;
40072;SDS011;25774;52.256;9.356;2024-02-28T13:37:51;45.10;;;23.03;;
40072;SDS011;25774;52.256;9.356;2024-02-28T13:40:18;42.97;;;23.50;;
40072;SDS011;25774;52.256;9.356;2024-02-28T13:42:44;43.27;;;22.27;;
40072;SDS011;25774;52.256;9.356;2024-02-28T13:45:10;46.80;;;22.80;;
40072;SDS011;25774;52.256;9.356;2024-02-28T13:47:36;42.42;;;22.90;;
40072;SDS011;25774;52.256;9.356;2024-02-28T13:50:02;42.73;;;23.50;;
40072;SDS011;25774;52.256;9.356;2024-02-28T13:52:27;45.53;;;22.98;;
40072;SDS011;25774;52.256;9.356;2024-02-28T13:54:52;44.00;;;23.37;;
40072;SDS011;25774;52.256;9.356;2024-02-28T13:57:18;47.33;;;23.20;;
40072;SDS011;25774;52.256;9.356;2024-02-28T13:59:45;40.37;;;21.87;;
40072;SDS011;25774;52.256;9.356;2024-02-28T14:02:14;42.40;;;22.65;;
40072;SDS011;25774;52.256;9.356;2024-02-28T14:04:39;42.45;;;22.65;;
40072;SDS011;25774;52.256;9.356;2024-02-28T14:07:10;43.50;;;23.70;;
40072;SDS011;25774;52.256;9.356;2024-02-28T14:09:37;46.38;;;23.90;;
40072;SDS011;25774;52.256;9.356;2024-02-28T14:14:28;42.47;;;22.30;;
40072;SDS011;25774;52.256;9.356;2024-02-28T14:16:53;39.17;;;21.50;;
40072;SDS011;25774;52.256;9.356;2024-02-28T14:19:19;43.30;;;23.10;;
40072;SDS011;25774;52.256;9.356;2024-02-28T14:21:44;41.73;;;22.17;;
40072;SDS011;25774;52.256;9.356;2024-02-28T14:24:09;41.87;;;21.80;;
40072;SDS011;25774;52.256;9.356;2024-02-28T14:26:35;44.73;;;22.93;;
40072;SDS011;25774;52.256;9.356;2024-02-28T14:29:00;44.60;;;22.33;;
40072;SDS011;25774;52.256;9.356;2024-02-28T14:31:26;42.80;;;22.70;;
40072;SDS011;25774;52.256;9.356;2024-02-28T14:33:51;44.92;;;22.73;;
40072;SDS011;25774;52.256;9.356;2024-02-28T14:36:17;44.03;;;23.70;;